Time;durP1;ratioP1;P1;durP2;ratioP2;P2;SDS_P1;SDS_P2;PMS_P1;PMS_P2;Temp;Humidity;BMP_temperature;BMP_pressure;BME280_temperature;BME280_humidity;BME280_pressure;Samples;Min_cycle;Max_cycle;Signal;HPM_P1;HPM_P2
2022/06/19 00:01:36;;;;;;;8.13;4.68;;;;;;;;;;5000463;28;20242;-60
2022/06/19 00:04:06;;;;;;;6.55;4.90;;;;;;;;;;5000180;28;20271;-60
2022/06/19 00:06:34;;;;;;;9.65;4.97;;;;;;;;;;5000243;28;20216;-60
2022/06/19 00:09:02;;;;;;;6.55;5.40;;;;;;;;;;5000729;28;20208;-60
2022/06/19 00:11:30;;;;;;;6.05;5.22;;;;;;;;;;5000120;28;20578;-60
2022/06/19 00:13:58;;;;;;;8.27;4.88;;;;;;;;;;5000443;28;20225;-60
2022/06/19 00:16:26;;;;;;;8.35;4.93;;;;;;;;;;5005773;28;20229;-60
2022/06/19 00:18:54;;;;;;;8.43;5.03;;;;;;;;;;5007104;28;20647;-60
2022/06/19 00:21:24;;;;;;;9.82;4.40;;;;;;;;;;4999987;28;20580;-60
2022/06/19 00:23:52;;;;;;;5.43;4.40;;;;;;;;;;5019345;28;20242;-60
2022/06/19 00:26:20;;;;;;;6.85;3.88;;;;;;;;;;4999859;28;20238;-60
2022/06/19 00:28:48;;;;;;;5.45;4.50;;;;;;;;;;5000039;28;20210;-60
2022/06/19 00:31:16;;;;;;;4.78;4.32;;;;;;;;;;4999998;28;20246;-60
2022/06/19 00:33:44;;;;;;;5.95;4.00;;;;;;;;;;5000456;28;20264;-60
2022/06/19 00:36:12;;;;;;;6.53;4.55;;;;;;;;;;5000171;28;20241;-60
2022/06/19 00:38:41;;;;;;;7.05;4.55;;;;;;;;;;5000166;28;20241;-60
2022/06/19 00:41:10;;;;;;;5.38;4.40;;;;;;;;;;4999558;28;20216;-60
2022/06/19 00:43:52;;;;;;;6.72;4.20;;;;;;;;;;5001802;28;20281;-60
2022/06/19 00:46:39;;;;;;;6.70;4.20;;;;;;;;;;4999715;28;20217;-60
2022/06/19 00:49:09;;;;;;;5.28;4.60;;;;;;;;;;5007721;28;20212;-60
2022/06/19 00:51:37;;;;;;;4.93;4.50;;;;;;;;;;5019523;28;20208;-60
2022/06/19 00:54:08;;;;;;;6.80;4.00;;;;;;;;;;5019144;28;20253;-60
2022/06/19 00:56:36;;;;;;;11.35;6.30;;;;;;;;;;5018963;28;20302;-60
2022/06/19 00:59:04;;;;;;;5.00;4.22;;;;;;;;;;5018927;28;20274;-60
2022/06/19 01:01:33;;;;;;;6.88;4.15;;;;;;;;;;5019301;28;20215;-60
2022/06/19 01:04:04;;;;;;;6.88;4.32;;;;;;;;;;5018882;28;20248;-60
2022/06/19 01:06:33;;;;;;;6.88;4.65;;;;;;;;;;5018768;28;20209;-60
2022/06/19 01:09:01;;;;;;;5.95;4.18;;;;;;;;;;5018868;28;20676;-60
2022/06/19 01:11:34;;;;;;;6.55;4.80;;;;;;;;;;5018950;28;20206;-60
2022/06/19 01:14:03;;;;;;;5.70;4.60;;;;;;;;;;5018703;28;20248;-60
2022/06/19 01:16:31;;;;;;;7.70;5.28;;;;;;;;;;5018682;28;20287;-60
2022/06/19 01:19:00;;;;;;;5.20;4.30;;;;;;;;;;5005034;28;20628;-60
2022/06/19 01:21:31;;;;;;;7.90;4.00;;;;;;;;;;5005884;28;20211;-60
2022/06/19 01:24:03;;;;;;;7.30;4.68;;;;;;;;;;5028154;28;20266;-60
2022/06/19 01:26:36;;;;;;;4.65;4.10;;;;;;;;;;4999144;28;20266;-60
2022/06/19 01:29:03;;;;;;;13.85;4.85;;;;;;;;;;4998969;28;20239;-60
2022/06/19 01:31:33;;;;;;;5.32;4.85;;;;;;;;;;4998932;28;20221;-60
2022/06/19 01:34:02;;;;;;;6.50;4.97;;;;;;;;;;5001547;28;20232;-60
2022/06/19 01:36:31;;;;;;;7.03;4.70;;;;;;;;;;4998798;28;20234;-60
2022/06/19 01:39:00;;;;;;;6.05;4.47;;;;;;;;;;4998757;28;20656;-60
2022/06/19 01:41:30;;;;;;;5.95;4.43;;;;;;;;;;4998577;28;20247;-60
2022/06/19 01:43:59;;;;;;;7.78;5.13;;;;;;;;;;5001927;28;20233;-60
2022/06/19 01:46:28;;;;;;;5.13;4.72;;;;;;;;;;4998057;28;20255;-60
2022/06/19 01:48:57;;;;;;;6.82;4.55;;;;;;;;;;4998179;28;20266;-60
2022/06/19 01:51:25;;;;;;;5.85;5.25;;;;;;;;;;4998824;28;20273;-60
2022/06/19 01:53:56;;;;;;;9.25;4.93;;;;;;;;;;4998378;28;20257;-60
2022/06/19 01:56:24;;;;;;;5.45;4.82;;;;;;;;;;4998441;28;20281;-60
2022/06/19 01:58:54;;;;;;;6.25;4.65;;;;;;;;;;4998716;28;20249;-60
2022/06/19 02:01:23;;;;;;;5.53;5.00;;;;;;;;;;4998350;28;20216;-60
2022/06/19 02:03:55;;;;;;;6.60;5.03;;;;;;;;;;4998292;28;20298;-60
2022/06/19 02:06:26;;;;;;;10.10;5.60;;;;;;;;;;4998464;28;20214;-60
2022/06/19 02:08:55;;;;;;;8.02;5.30;;;;;;;;;;4998440;28;20270;-60
2022/06/19 02:11:23;;;;;;;8.68;5.30;;;;;;;;;;4998239;28;20242;-60
2022/06/19 02:13:53;;;;;;;6.38;5.18;;;;;;;;;;4998449;28;20232;-60
2022/06/19 02:16:22;;;;;;;8.80;4.75;;;;;;;;;;5003028;28;20205;-60
2022/06/19 02:18:53;;;;;;;5.65;4.80;;;;;;;;;;5005496;28;20630;-60
2022/06/19 02:21:22;;;;;;;7.70;5.05;;;;;;;;;;4998079;28;20210;-60
2022/06/19 02:23:51;;;;;;;5.10;4.60;;;;;;;;;;5017417;28;20308;-60
2022/06/19 02:26:19;;;;;;;6.10;4.75;;;;;;;;;;4998327;28;20218;-60
2022/06/19 02:28:49;;;;;;;5.47;4.68;;;;;;;;;;4998140;28;20211;-60
2022/06/19 02:31:18;;;;;;;7.88;4.85;;;;;;;;;;4998164;28;20700;-60
2022/06/19 02:33:48;;;;;;;8.02;5.10;;;;;;;;;;4998934;28;20249;-60
2022/06/19 02:36:34;;;;;;;4.97;4.65;;;;;;;;;;4997861;28;20277;-60
2022/06/19 02:39:13;;;;;;;7.80;5.90;;;;;;;;;;4997879;28;20209;-60
2022/06/19 02:41:45;;;;;;;9.27;5.22;;;;;;;;;;4997755;28;20625;-60
2022/06/19 02:44:13;;;;;;;5.40;4.90;;;;;;;;;;5000188;28;20265;-60
2022/06/19 02:46:41;;;;;;;6.38;4.70;;;;;;;;;;4997847;28;20268;-60
2022/06/19 02:49:09;;;;;;;4.90;4.45;;;;;;;;;;4997638;28;20210;-60
2022/06/19 02:51:38;;;;;;;5.32;4.82;;;;;;;;;;4997969;28;20215;-60
2022/06/19 02:54:06;;;;;;;5.28;4.88;;;;;;;;;;4997950;28;20229;-60
2022/06/19 02:56:34;;;;;;;5.65;4.68;;;;;;;;;;4999227;28;20255;-60
2022/06/19 02:59:02;;;;;;;12.02;5.18;;;;;;;;;;5001810;28;20207;-60
2022/06/19 03:01:30;;;;;;;9.65;4.95;;;;;;;;;;5001783;28;20244;-60
2022/06/19 03:03:58;;;;;;;5.13;4.72;;;;;;;;;;5001480;28;20240;-60
2022/06/19 03:06:26;;;;;;;6.88;4.55;;;;;;;;;;5001903;28;20288;-60
2022/06/19 03:08:55;;;;;;;7.90;4.82;;;;;;;;;;5001894;28;20217;-60
2022/06/19 03:11:23;;;;;;;5.40;4.93;;;;;;;;;;5001297;28;20243;-60
2022/06/19 03:13:51;;;;;;;5.47;4.70;;;;;;;;;;5001331;28;20573;-60
2022/06/19 03:16:19;;;;;;;5.00;4.50;;;;;;;;;;5006159;28;20228;-60
2022/06/19 03:18:47;;;;;;;7.05;4.60;;;;;;;;;;5009249;28;20280;-60
2022/06/19 03:21:15;;;;;;;6.10;4.80;;;;;;;;;;5001299;28;20219;-60
2022/06/19 03:23:43;;;;;;;4.78;4.35;;;;;;;;;;5019103;28;20232;-60
2022/06/19 03:26:13;;;;;;;6.25;4.85;;;;;;;;;;5002826;28;20256;-60
2022/06/19 03:28:41;;;;;;;7.13;4.45;;;;;;;;;;5001182;28;20661;-60
2022/06/19 03:31:11;;;;;;;6.38;4.20;;;;;;;;;;5001141;28;20355;-60
2022/06/19 03:33:39;;;;;;;5.35;4.25;;;;;;;;;;5002464;28;20659;-60
2022/06/19 03:36:07;;;;;;;5.03;4.63;;;;;;;;;;5000980;28;20233;-60
2022/06/19 03:38:35;;;;;;;5.30;4.45;;;;;;;;;;5001154;28;20215;-60
2022/06/19 03:41:03;;;;;;;5.50;4.60;;;;;;;;;;5000998;28;20218;-60
2022/06/19 03:43:33;;;;;;;5.35;3.90;;;;;;;;;;5003194;28;20268;-60
2022/06/19 03:46:01;;;;;;;7.07;4.55;;;;;;;;;;5001077;28;20232;-59
2022/06/19 03:48:29;;;;;;;4.82;4.40;;;;;;;;;;5000877;28;21039;-60
2022/06/19 03:50:57;;;;;;;4.47;4.05;;;;;;;;;;5001080;28;20210;-59
2022/06/19 03:53:25;;;;;;;5.68;4.57;;;;;;;;;;5000889;28;20234;-59
2022/06/19 03:55:53;;;;;;;6.68;4.18;;;;;;;;;;5000772;28;20242;-60
2022/06/19 03:58:21;;;;;;;5.18;4.72;;;;;;;;;;5000877;28;20245;-59
2022/06/19 04:00:50;;;;;;;6.72;4.35;;;;;;;;;;5000479;28;20700;-59
2022/06/19 04:03:18;;;;;;;4.95;4.55;;;;;;;;;;5001768;28;20226;-59
2022/06/19 04:05:46;;;;;;;5.05;4.20;;;;;;;;;;5017557;28;20265;-59
2022/06/19 04:08:14;;;;;;;6.15;4.60;;;;;;;;;;5011498;28;20250;-59
2022/06/19 04:10:42;;;;;;;7.78;4.47;;;;;;;;;;5009258;28;20228;-60
2022/06/19 04:13:10;;;;;;;5.10;4.20;;;;;;;;;;5015157;28;20229;-59
2022/06/19 04:15:39;;;;;;;8.65;4.40;;;;;;;;;;5016596;28;20236;-59
2022/06/19 04:18:08;;;;;;;5.32;3.85;;;;;;;;;;5014905;28;20703;-59
2022/06/19 04:20:36;;;;;;;6.80;4.27;;;;;;;;;;5014864;28;20221;-59
2022/06/19 04:23:06;;;;;;;5.25;4.47;;;;;;;;;;5020192;28;20247;-59
2022/06/19 04:25:34;;;;;;;5.13;4.10;;;;;;;;;;5006022;28;20251;-60
2022/06/19 04:28:02;;;;;;;5.33;4.17;;;;;;;;;;5005566;28;20253;-59
2022/06/19 04:30:30;;;;;;;4.67;4.17;;;;;;;;;;5000018;28;20213;-59
2022/06/19 04:32:58;;;;;;;4.40;4.10;;;;;;;;;;4999655;28;20560;-59
2022/06/19 04:35:27;;;;;;;5.57;4.20;;;;;;;;;;5002397;28;20197;-59
2022/06/19 04:37:55;;;;;;;4.80;4.33;;;;;;;;;;5000124;28;20274;-60
2022/06/19 04:40:24;;;;;;;6.07;4.83;;;;;;;;;;4999859;28;20255;-59
2022/06/19 04:42:52;;;;;;;7.17;4.80;;;;;;;;;;4999770;28;20242;-59
2022/06/19 04:45:20;;;;;;;4.83;4.43;;;;;;;;;;5002758;28;20235;-59
2022/06/19 04:47:48;;;;;;;5.10;4.23;;;;;;;;;;4999741;28;20250;-59
2022/06/19 04:50:16;;;;;;;6.00;4.23;;;;;;;;;;4999850;28;20252;-59
2022/06/19 04:52:45;;;;;;;8.00;4.73;;;;;;;;;;4999553;28;20242;-59
2022/06/19 04:55:13;;;;;;;5.87;4.20;;;;;;;;;;4999566;28;20236;-59
2022/06/19 04:57:42;;;;;;;7.47;4.73;;;;;;;;;;4999251;28;20254;-59
2022/06/19 05:00:11;;;;;;;8.83;4.80;;;;;;;;;;4999598;28;20240;-59
2022/06/19 05:02:39;;;;;;;6.82;4.50;;;;;;;;;;4999218;28;20206;-59
2022/06/19 05:05:08;;;;;;;6.80;4.83;;;;;;;;;;4999382;28;20260;-59
2022/06/19 05:07:36;;;;;;;7.13;4.47;;;;;;;;;;4999352;28;20297;-59
2022/06/19 05:10:06;;;;;;;4.93;4.22;;;;;;;;;;4999171;28;20249;-59
2022/06/19 05:12:34;;;;;;;5.95;4.70;;;;;;;;;;4999845;28;20217;-59
2022/06/19 05:15:02;;;;;;;11.02;4.28;;;;;;;;;;4999462;28;20283;-60
2022/06/19 05:17:30;;;;;;;5.50;3.67;;;;;;;;;;5012293;28;20210;-59
2022/06/19 05:19:58;;;;;;;5.60;4.17;;;;;;;;;;4998401;28;20251;-59
2022/06/19 05:22:26;;;;;;;4.30;3.87;;;;;;;;;;4999276;28;20240;-59
2022/06/19 05:24:54;;;;;;;11.13;4.57;;;;;;;;;;5019300;28;20262;-59
2022/06/19 05:27:23;;;;;;;4.97;3.80;;;;;;;;;;4998589;28;20261;-60
2022/06/19 05:29:51;;;;;;;4.53;4.05;;;;;;;;;;4998978;28;20276;-59
2022/06/19 05:32:19;;;;;;;4.47;3.97;;;;;;;;;;4998521;28;20211;-59
2022/06/19 05:34:48;;;;;;;5.00;4.27;;;;;;;;;;5001072;28;20565;-59
2022/06/19 05:37:16;;;;;;;5.47;4.50;;;;;;;;;;4998848;28;20211;-59
2022/06/19 05:39:45;;;;;;;4.50;4.10;;;;;;;;;;4998841;28;20240;-59
2022/06/19 05:42:20;;;;;;;6.80;4.43;;;;;;;;;;4998725;28;20209;-59
2022/06/19 05:44:50;;;;;;;6.57;4.22;;;;;;;;;;5001326;28;20227;-59
2022/06/19 05:47:18;;;;;;;4.70;4.05;;;;;;;;;;4998045;28;20238;-59
2022/06/19 05:49:47;;;;;;;4.80;4.07;;;;;;;;;;4998607;28;20223;-60
2022/06/19 05:52:16;;;;;;;7.90;4.70;;;;;;;;;;5005251;28;20213;-59
2022/06/19 05:54:44;;;;;;;4.90;4.22;;;;;;;;;;5018433;28;20231;-60
2022/06/19 05:57:13;;;;;;;4.85;4.35;;;;;;;;;;5017913;28;20724;-59
2022/06/19 05:59:41;;;;;;;4.53;4.07;;;;;;;;;;5017897;28;20693;-59
2022/06/19 06:02:11;;;;;;;4.50;4.10;;;;;;;;;;5018112;28;20215;-59
2022/06/19 06:04:39;;;;;;;5.57;3.92;;;;;;;;;;5018145;28;20224;-59
2022/06/19 06:07:07;;;;;;;5.30;4.22;;;;;;;;;;5018011;28;20284;-60
2022/06/19 06:09:36;;;;;;;6.75;3.95;;;;;;;;;;5018226;28;20246;-60
2022/06/19 06:12:05;;;;;;;8.98;4.30;;;;;;;;;;5017845;28;20666;-59
2022/06/19 06:14:33;;;;;;;6.65;4.43;;;;;;;;;;5017625;28;20657;-60
2022/06/19 06:17:01;;;;;;;5.35;4.55;;;;;;;;;;5017438;28;20578;-59
2022/06/19 06:19:30;;;;;;;6.88;3.75;;;;;;;;;;5000793;28;20211;-59
2022/06/19 06:21:58;;;;;;;8.95;4.65;;;;;;;;;;4998221;28;20616;-59
2022/06/19 06:24:26;;;;;;;4.72;4.32;;;;;;;;;;5018251;28;20706;-60
2022/06/19 06:26:54;;;;;;;4.90;4.50;;;;;;;;;;4997911;28;20286;-59
2022/06/19 06:29:22;;;;;;;5.32;4.43;;;;;;;;;;4997879;28;20211;-59
2022/06/19 06:31:50;;;;;;;5.00;4.10;;;;;;;;;;4997469;28;20220;-59
2022/06/19 06:34:18;;;;;;;6.90;4.32;;;;;;;;;;4999588;28;20291;-60
2022/06/19 06:36:47;;;;;;;4.82;3.80;;;;;;;;;;4998241;28;20539;-59
2022/06/19 06:39:15;;;;;;;6.55;4.25;;;;;;;;;;5005019;28;20207;-59
2022/06/19 06:41:43;;;;;;;6.20;4.35;;;;;;;;;;5017797;28;20221;-59
2022/06/19 06:44:13;;;;;;;5.85;3.85;;;;;;;;;;5009721;28;20286;-60
2022/06/19 06:46:41;;;;;;;4.88;4.47;;;;;;;;;;4997991;28;20262;-59
2022/06/19 06:49:10;;;;;;;4.80;4.38;;;;;;;;;;4997936;28;20211;-59
2022/06/19 06:51:38;;;;;;;4.55;4.18;;;;;;;;;;4997799;28;20262;-59
2022/06/19 06:54:07;;;;;;;4.95;4.47;;;;;;;;;;4997782;28;20267;-60
2022/06/19 06:56:36;;;;;;;7.50;4.10;;;;;;;;;;4997768;28;20264;-60
2022/06/19 06:59:04;;;;;;;5.53;4.30;;;;;;;;;;4997737;28;20216;-59
2022/06/19 07:01:33;;;;;;;6.30;4.38;;;;;;;;;;4997588;28;20243;-59
2022/06/19 07:04:01;;;;;;;5.32;4.15;;;;;;;;;;4997169;28;20719;-59
2022/06/19 07:06:29;;;;;;;4.55;4.05;;;;;;;;;;4997980;28;20229;-60
2022/06/19 07:08:58;;;;;;;9.82;3.90;;;;;;;;;;4997693;28;20208;-59
2022/06/19 07:11:28;;;;;;;5.90;4.20;;;;;;;;;;4997423;28;20208;-60
2022/06/19 07:13:56;;;;;;;5.97;4.13;;;;;;;;;;4997459;28;20283;-60
2022/06/19 07:16:25;;;;;;;5.28;4.22;;;;;;;;;;5002929;28;20204;-60
2022/06/19 07:18:53;;;;;;;5.15;4.13;;;;;;;;;;5005065;28;20291;-60
2022/06/19 07:21:22;;;;;;;4.47;4.05;;;;;;;;;;4997557;28;20688;-59
2022/06/19 07:23:50;;;;;;;5.30;4.07;;;;;;;;;;5016793;28;20730;-60
2022/06/19 07:26:19;;;;;;;6.55;4.28;;;;;;;;;;4997452;28;20680;-60
2022/06/19 07:28:49;;;;;;;6.47;4.10;;;;;;;;;;4997830;28;20209;-60
2022/06/19 07:31:26;;;;;;;4.40;3.97;;;;;;;;;;5005716;28;20207;-59
2022/06/19 07:33:54;;;;;;;4.38;3.75;;;;;;;;;;5016771;28;20230;-60
2022/06/19 07:36:22;;;;;;;5.55;4.07;;;;;;;;;;4997485;28;20216;-59
2022/06/19 07:38:50;;;;;;;6.00;3.97;;;;;;;;;;4997420;28;20609;-60
2022/06/19 07:41:18;;;;;;;5.30;4.28;;;;;;;;;;4997610;28;20209;-59
2022/06/19 07:43:50;;;;;;;10.02;4.25;;;;;;;;;;5002057;28;20651;-60
2022/06/19 07:46:20;;;;;;;5.55;4.57;;;;;;;;;;5000899;28;20255;-60
2022/06/19 07:51:33;;;;;;;6.45;4.50;;;;;;;;;;5001116;28;20208;-60
2022/06/19 07:54:02;;;;;;;6.93;4.53;;;;;;;;;;5000856;28;20268;-59
2022/06/19 07:56:30;;;;;;;4.47;4.00;;;;;;;;;;5000566;28;20308;-60
2022/06/19 07:58:58;;;;;;;4.50;4.10;;;;;;;;;;5000695;28;20259;-60
2022/06/19 08:01:27;;;;;;;5.72;4.30;;;;;;;;;;5000851;28;20235;-60
2022/06/19 08:04:15;;;;;;;5.18;4.32;;;;;;;;;;5000094;28;20391;-60
2022/06/19 08:06:44;;;;;;;6.63;4.30;;;;;;;;;;5000333;28;20215;-60
2022/06/19 08:09:12;;;;;;;6.45;4.45;;;;;;;;;;5000700;28;20243;-60
2022/06/19 08:11:40;;;;;;;4.60;3.83;;;;;;;;;;5000347;28;20235;-60
2022/06/19 08:14:07;;;;;;;9.80;4.45;;;;;;;;;;5000519;28;20312;-60
2022/06/19 08:16:37;;;;;;;4.80;4.30;;;;;;;;;;5007401;28;20200;-60
2022/06/19 08:19:05;;;;;;;6.07;4.43;;;;;;;;;;5005723;28;20208;-59
2022/06/19 08:21:33;;;;;;;9.93;5.10;;;;;;;;;;5000462;28;20209;-60
2022/06/19 08:24:01;;;;;;;6.03;4.10;;;;;;;;;;5020017;28;20259;-60
2022/06/19 08:26:29;;;;;;;5.20;4.13;;;;;;;;;;5000140;28;20244;-60
2022/06/19 08:29:00;;;;;;;6.65;4.70;;;;;;;;;;5000246;28;20271;-60
2022/06/19 08:31:28;;;;;;;8.88;4.20;;;;;;;;;;5000053;28;20216;-59
2022/06/19 08:33:58;;;;;;;7.07;4.32;;;;;;;;;;5001925;28;20767;-60
2022/06/19 08:36:27;;;;;;;5.57;4.22;;;;;;;;;;4999859;28;20236;-60
2022/06/19 08:38:56;;;;;;;8.13;4.85;;;;;;;;;;4999758;28;20763;-60
2022/06/19 08:41:32;;;;;;;6.63;4.38;;;;;;;;;;4999929;28;20213;-60
2022/06/19 08:44:07;;;;;;;6.85;4.05;;;;;;;;;;5002169;28;20695;-60
2022/06/19 08:46:40;;;;;;;9.07;4.28;;;;;;;;;;4999629;28;20291;-60
2022/06/19 08:49:14;;;;;;;10.00;4.40;;;;;;;;;;4999519;28;20232;-60
2022/06/19 08:51:46;;;;;;;6.82;4.15;;;;;;;;;;4999470;28;20259;-59
2022/06/19 08:54:21;;;;;;;5.15;4.63;;;;;;;;;;4999483;28;20228;-60
2022/06/19 08:56:54;;;;;;;5.63;3.92;;;;;;;;;;4999064;28;20236;-59
2022/06/19 08:59:25;;;;;;;7.38;4.55;;;;;;;;;;4999688;28;20236;-59
2022/06/19 09:01:57;;;;;;;8.65;4.15;;;;;;;;;;4999342;28;20212;-59
2022/06/19 09:07:21;;;;;;;6.38;3.88;;;;;;;;;;4999467;28;20271;-60
2022/06/19 09:09:57;;;;;;;8.77;3.33;;;;;;;;;;4999244;28;20267;-60
2022/06/19 09:12:33;;;;;;;9.93;4.15;;;;;;;;;;4999130;28;20660;-60
2022/06/19 09:15:06;;;;;;;4.57;3.90;;;;;;;;;;5006266;28;20227;-60
2022/06/19 09:17:37;;;;;;;4.60;3.75;;;;;;;;;;5016784;28;20199;-60
2022/06/19 09:20:16;;;;;;;6.45;4.25;;;;;;;;;;4999184;28;20208;-60
2022/06/19 09:22:55;;;;;;;5.03;3.75;;;;;;;;;;5000462;28;20214;-60
2022/06/19 09:25:35;;;;;;;4.05;3.63;;;;;;;;;;5013215;28;20208;-60
2022/06/19 09:28:06;;;;;;;6.72;4.43;;;;;;;;;;5007088;28;20278;-60
2022/06/19 09:30:37;;;;;;;11.27;4.47;;;;;;;;;;5018459;28;20208;-59
2022/06/19 09:33:10;;;;;;;7.82;3.67;;;;;;;;;;5018464;28;20354;-60
2022/06/19 09:35:42;;;;;;;6.93;4.05;;;;;;;;;;5002104;28;20264;-60
2022/06/19 09:38:12;;;;;;;6.57;4.13;;;;;;;;;;4999122;28;20244;-60
2022/06/19 09:40:42;;;;;;;8.07;4.28;;;;;;;;;;4998639;28;20642;-59
2022/06/19 09:43:20;;;;;;;4.72;3.80;;;;;;;;;;5000040;28;20711;-60
2022/06/19 09:45:52;;;;;;;7.47;3.88;;;;;;;;;;5011448;28;20212;-60
2022/06/19 09:48:23;;;;;;;13.93;3.80;;;;;;;;;;4998450;28;20260;-60
2022/06/19 09:50:54;;;;;;;6.70;3.92;;;;;;;;;;4998492;28;20710;-60
2022/06/19 09:53:26;;;;;;;4.90;3.67;;;;;;;;;;4998448;28;20229;-60
2022/06/19 09:56:19;;;;;;;6.40;4.00;;;;;;;;;;4998357;28;20240;-60
2022/06/19 09:58:50;;;;;;;4.43;3.80;;;;;;;;;;4998327;28;20679;-60
2022/06/19 10:01:18;;;;;;;4.93;3.80;;;;;;;;;;4998630;28;20239;-59
2022/06/19 10:03:50;;;;;;;6.88;3.33;;;;;;;;;;4998219;28;20264;-60
2022/06/19 10:06:22;;;;;;;7.00;3.25;;;;;;;;;;4997721;28;20614;-60
2022/06/19 10:08:52;;;;;;;5.90;3.50;;;;;;;;;;4998293;28;20240;-60
2022/06/19 10:11:22;;;;;;;5.53;3.30;;;;;;;;;;4998059;28;20212;-60
2022/06/19 10:13:52;;;;;;;5.30;3.22;;;;;;;;;;4998369;28;20236;-60
2022/06/19 10:16:24;;;;;;;4.82;3.30;;;;;;;;;;5003189;28;20207;-59
2022/06/19 10:18:53;;;;;;;7.90;2.83;;;;;;;;;;5005571;28;20205;-60
2022/06/19 10:24:16;;;;;;;4.35;3.25;;;;;;;;;;5017779;28;20264;-60
2022/06/19 10:26:48;;;;;;;7.95;3.42;;;;;;;;;;4998333;28;20240;-60
2022/06/19 10:29:37;;;;;;;5.32;2.90;;;;;;;;;;4997854;28;20706;-60
2022/06/19 10:32:20;;;;;;;7.28;3.13;;;;;;;;;;4994953;28;20208;-60
2022/06/19 10:34:56;;;;;;;4.55;2.70;;;;;;;;;;5000203;28;20774;-60
2022/06/19 10:37:31;;;;;;;4.05;2.80;;;;;;;;;;4998009;28;20274;-60
2022/06/19 10:40:14;;;;;;;5.85;3.13;;;;;;;;;;4998255;28;20231;-59
2022/06/19 10:42:46;;;;;;;3.10;2.53;;;;;;;;;;5006134;28;20547;-60
2022/06/19 10:45:19;;;;;;;4.88;3.10;;;;;;;;;;5002032;28;20349;-60
2022/06/19 10:47:54;;;;;;;4.03;3.13;;;;;;;;;;4997788;28;20204;-60
2022/06/19 10:50:26;;;;;;;5.78;2.75;;;;;;;;;;4998128;28;20204;-60
2022/06/19 10:52:59;;;;;;;4.03;2.95;;;;;;;;;;4997964;28;20216;-60
2022/06/19 10:55:32;;;;;;;4.53;2.70;;;;;;;;;;4997581;28;20691;-60
2022/06/19 10:58:06;;;;;;;5.97;3.28;;;;;;;;;;4997823;28;20267;-60
2022/06/19 11:00:34;;;;;;;5.22;2.55;;;;;;;;;;4997797;28;20211;-60
2022/06/19 11:05:53;;;;;;;3.65;3.00;;;;;;;;;;4997804;28;20216;-60
2022/06/19 11:08:23;;;;;;;3.53;3.00;;;;;;;;;;4997639;28;20225;-60
2022/06/19 11:10:54;;;;;;;5.20;3.20;;;;;;;;;;4997862;28;20244;-60
2022/06/19 11:13:22;;;;;;;4.22;2.58;;;;;;;;;;5004068;28;20672;-60
2022/06/19 11:16:00;;;;;;;3.28;2.50;;;;;;;;;;5017165;28;20215;-60
2022/06/19 11:18:28;;;;;;;3.10;2.75;;;;;;;;;;5011362;28;20204;-60
2022/06/19 11:21:01;;;;;;;4.50;3.10;;;;;;;;;;5001156;28;20232;-60
2022/06/19 11:23:32;;;;;;;6.07;2.60;;;;;;;;;;5014998;28;20234;-60
2022/06/19 11:26:02;;;;;;;3.67;2.80;;;;;;;;;;5005945;28;20209;-60
2022/06/19 11:28:42;;;;;;;3.03;2.75;;;;;;;;;;5001419;28;20237;-60
2022/06/19 11:31:12;;;;;;;5.38;3.20;;;;;;;;;;5001465;28;20224;-60
2022/06/19 11:33:41;;;;;;;3.22;2.97;;;;;;;;;;5003216;28;20264;-60
2022/06/19 11:36:12;;;;;;;5.32;3.38;;;;;;;;;;5001181;28;20243;-60
2022/06/19 11:38:42;;;;;;;3.35;2.90;;;;;;;;;;5000978;28;20208;-60
2022/06/19 11:41:27;;;;;;;8.98;3.20;;;;;;;;;;5001175;28;20213;-60
2022/06/19 11:44:01;;;;;;;5.22;2.92;;;;;;;;;;5003735;28;20264;-60
2022/06/19 11:46:30;;;;;;;3.40;2.55;;;;;;;;;;5001135;28;20208;-60
2022/06/19 11:49:13;;;;;;;4.88;3.00;;;;;;;;;;5000705;28;20243;-60
2022/06/19 11:51:44;;;;;;;8.15;3.10;;;;;;;;;;5001114;28;20219;-60
2022/06/19 11:54:14;;;;;;;3.22;2.90;;;;;;;;;;5001070;28;20228;-60
2022/06/19 11:56:43;;;;;;;4.18;3.13;;;;;;;;;;5000460;28;20275;-60
2022/06/19 11:59:22;;;;;;;4.55;2.80;;;;;;;;;;5000906;28;20204;-60
2022/06/19 12:01:51;;;;;;;3.00;2.70;;;;;;;;;;5000388;28;20283;-60
2022/06/19 12:04:23;;;;;;;3.95;2.42;;;;;;;;;;5000647;28;20268;-60
2022/06/19 12:06:53;;;;;;;3.20;2.88;;;;;;;;;;5000746;28;20209;-59
2022/06/19 12:09:29;;;;;;;3.15;2.78;;;;;;;;;;5000252;28;20566;-60
2022/06/19 12:12:00;;;;;;;5.05;2.88;;;;;;;;;;5000508;28;20235;-60
2022/06/19 12:14:35;;;;;;;5.43;3.05;;;;;;;;;;5000678;28;20315;-60
2022/06/19 12:17:18;;;;;;;3.75;2.83;;;;;;;;;;5010864;28;20204;-60
2022/06/19 12:19:52;;;;;;;5.13;2.83;;;;;;;;;;5000230;28;20620;-60
2022/06/19 12:22:22;;;;;;;5.53;3.22;;;;;;;;;;5000282;28;20656;-60
2022/06/19 12:24:56;;;;;;;5.53;2.83;;;;;;;;;;5020774;28;20236;-60
2022/06/19 12:27:25;;;;;;;7.07;3.67;;;;;;;;;;5000188;28;20240;-60
2022/06/19 12:29:55;;;;;;;9.13;3.15;;;;;;;;;;4999661;28;20268;-60
2022/06/19 12:32:25;;;;;;;7.38;3.13;;;;;;;;;;4999864;28;20244;-60
2022/06/19 12:34:56;;;;;;;4.60;2.80;;;;;;;;;;5002902;28;20588;-60
2022/06/19 12:37:27;;;;;;;11.98;3.10;;;;;;;;;;4999937;28;20205;-60
2022/06/19 12:39:56;;;;;;;6.95;2.60;;;;;;;;;;5000249;28;20208;-60
2022/06/19 12:42:27;;;;;;;4.10;2.60;;;;;;;;;;4999630;28;20659;-60
2022/06/19 12:45:01;;;;;;;7.95;2.90;;;;;;;;;;5002839;28;20236;-60
2022/06/19 12:47:39;;;;;;;5.55;3.17;;;;;;;;;;5006670;28;20235;-60
2022/06/19 12:50:26;;;;;;;6.18;2.65;;;;;;;;;;5019247;28;20247;-60
2022/06/19 12:53:00;;;;;;;4.63;2.95;;;;;;;;;;5019576;28;20254;-60
2022/06/19 12:55:39;;;;;;;9.80;3.25;;;;;;;;;;5019308;28;20247;-60
2022/06/19 12:58:22;;;;;;;6.80;2.90;;;;;;;;;;5019146;28;20236;-60
2022/06/19 13:00:57;;;;;;;5.57;3.28;;;;;;;;;;5011818;28;20330;-60
2022/06/19 13:03:31;;;;;;;8.60;2.83;;;;;;;;;;5018661;28;20634;-60
2022/06/19 13:06:04;;;;;;;7.18;3.47;;;;;;;;;;5019097;28;20642;-60
2022/06/19 13:08:37;;;;;;;3.17;2.90;;;;;;;;;;5018979;28;20622;-60
2022/06/19 13:11:11;;;;;;;7.60;4.20;;;;;;;;;;5018993;28;20235;-60
2022/06/19 13:14:02;;;;;;;6.18;3.30;;;;;;;;;;5018913;28;20234;-60
2022/06/19 13:16:36;;;;;;;4.47;2.78;;;;;;;;;;5019041;28;20200;-60
2022/06/19 13:19:07;;;;;;;6.15;3.00;;;;;;;;;;5005072;28;20653;-60
2022/06/19 13:21:39;;;;;;;6.15;3.05;;;;;;;;;;4999375;28;20208;-60
2022/06/19 13:24:11;;;;;;;5.00;2.90;;;;;;;;;;5019048;28;20664;-60
2022/06/19 13:29:35;;;;;;;6.30;3.20;;;;;;;;;;4998890;28;20232;-60
2022/06/19 13:32:07;;;;;;;6.97;2.90;;;;;;;;;;4998679;28;20209;-60
2022/06/19 13:34:46;;;;;;;5.45;3.22;;;;;;;;;;5000996;28;20260;-60
2022/06/19 13:37:24;;;;;;;4.38;3.22;;;;;;;;;;4999179;28;20219;-60
2022/06/19 13:39:54;;;;;;;4.18;2.67;;;;;;;;;;4998978;28;20211;-60
2022/06/19 13:42:40;;;;;;;3.80;3.47;;;;;;;;;;4998286;28;20208;-60
2022/06/19 13:45:19;;;;;;;10.20;3.05;;;;;;;;;;5001924;28;20209;-60
2022/06/19 13:47:51;;;;;;;4.38;2.72;;;;;;;;;;4998644;28;20246;-60
2022/06/19 13:50:22;;;;;;;9.50;2.67;;;;;;;;;;4998598;28;20260;-60
2022/06/19 13:52:55;;;;;;;9.60;3.53;;;;;;;;;;4998784;28;20248;-60
2022/06/19 13:55:40;;;;;;;8.05;3.25;;;;;;;;;;4998829;28;20204;-60
2022/06/19 13:58:11;;;;;;;5.72;2.72;;;;;;;;;;4991781;28;20208;-60
2022/06/19 14:00:41;;;;;;;6.90;2.75;;;;;;;;;;4998715;28;20204;-60
2022/06/19 14:03:21;;;;;;;8.57;2.88;;;;;;;;;;4998404;28;20260;-60
2022/06/19 14:05:51;;;;;;;6.15;2.67;;;;;;;;;;4998312;28;20236;-60
2022/06/19 14:08:28;;;;;;;7.95;2.83;;;;;;;;;;4998340;28;20208;-60
2022/06/19 14:10:58;;;;;;;3.95;2.78;;;;;;;;;;4997879;28;20227;-60
2022/06/19 14:13:31;;;;;;;5.60;2.85;;;;;;;;;;4998414;28;20258;-60
2022/06/19 14:16:05;;;;;;;8.55;3.05;;;;;;;;;;5000185;28;20216;-60
2022/06/19 14:18:42;;;;;;;8.95;3.05;;;;;;;;;;5007294;28;20216;-60
2022/06/19 14:21:17;;;;;;;5.00;2.50;;;;;;;;;;4998025;28;20235;-60
2022/06/19 14:23:49;;;;;;;6.10;2.60;;;;;;;;;;5016338;28;20258;-60
2022/06/19 14:26:27;;;;;;;5.00;2.40;;;;;;;;;;4997939;28;20637;-60
2022/06/19 14:29:10;;;;;;;3.83;2.80;;;;;;;;;;4998081;28;20212;-60
2022/06/19 14:31:39;;;;;;;10.25;3.00;;;;;;;;;;4996242;28;20259;-60
2022/06/19 14:34:10;;;;;;;10.68;3.30;;;;;;;;;;4999080;28;20294;-60
2022/06/19 14:36:38;;;;;;;6.05;3.08;;;;;;;;;;4998059;28;20618;-60
2022/06/19 14:39:23;;;;;;;8.85;3.17;;;;;;;;;;4998197;28;20266;-60
2022/06/19 14:41:58;;;;;;;3.00;2.28;;;;;;;;;;4997590;28;20750;-60
2022/06/19 14:44:26;;;;;;;11.15;2.90;;;;;;;;;;5000389;28;20256;-60
2022/06/19 14:47:13;;;;;;;10.18;2.63;;;;;;;;;;4997896;28;20205;-60
2022/06/19 14:50:05;;;;;;;6.10;2.50;;;;;;;;;;4998284;28;20205;-60
2022/06/19 14:53:00;;;;;;;10.38;3.05;;;;;;;;;;5009060;28;20619;-60
2022/06/19 14:55:33;;;;;;;8.68;2.88;;;;;;;;;;5021440;28;20238;-60
2022/06/19 14:58:02;;;;;;;6.60;2.80;;;;;;;;;;5021247;28;20271;-60
2022/06/19 15:00:36;;;;;;;5.25;2.65;;;;;;;;;;5021663;28;20207;-60
2022/06/19 15:03:07;;;;;;;9.13;3.80;;;;;;;;;;5021299;28;20262;-60
2022/06/19 15:05:39;;;;;;;7.60;3.20;;;;;;;;;;5021350;28;20655;-60
2022/06/19 15:08:18;;;;;;;7.63;3.00;;;;;;;;;;5021057;28;20674;-60
2022/06/19 15:10:51;;;;;;;4.95;2.95;;;;;;;;;;5021048;28;20374;-60
2022/06/19 15:13:21;;;;;;;7.03;3.42;;;;;;;;;;5021129;28;20236;-60
2022/06/19 15:15:52;;;;;;;6.25;2.92;;;;;;;;;;5021319;28;20204;-60
2022/06/19 15:18:24;;;;;;;5.38;2.65;;;;;;;;;;5012895;28;20212;-60
2022/06/19 15:21:14;;;;;;;6.03;2.97;;;;;;;;;;5001484;28;20208;-60